sensor_id;sensor_type;location;lat;lon;timestamp;pressure;altitude;pressure_sealevel;temperature;humidity
43125;BME280;49182;50.788;7.318;2023-09-19T00:03:26;100228.56;;;15.22;100.00
43125;BME280;49182;50.788;7.318;2023-09-19T00:08:27;100232.75;;;15.16;100.00
43125;BME280;49182;50.788;7.318;2023-09-19T00:13:30;100238.94;;;15.09;100.00
43125;BME280;49182;50.788;7.318;2023-09-19T00:18:32;100166.00;;;14.64;100.00
43125;BME280;49182;50.788;7.318;2023-09-19T00:23:34;100245.31;;;15.00;100.00
43125;BME280;49182;50.788;7.318;2023-09-19T00:28:38;100118.44;;;14.14;100.00
43125;BME280;49182;50.788;7.318;2023-09-19T00:33:40;100244.66;;;14.81;100.00
43125;BME280;49182;50.788;7.318;2023-09-19T00:38:42;100191.16;;;14.37;100.00
43125;BME280;49182;50.788;7.318;2023-09-19T00:43:45;100232.47;;;14.56;100.00
43125;BME280;49182;50.788;7.318;2023-09-19T00:48:47;100246.91;;;14.62;100.00
43125;BME280;49182;50.788;7.318;2023-09-19T00:53:49;100243.41;;;14.61;100.00
43125;BME280;49182;50.788;7.318;2023-09-19T00:58:52;100153.63;;;14.08;100.00
43125;BME280;49182;50.788;7.318;2023-09-19T01:03:54;100253.88;;;14.54;100.00
43125;BME280;49182;50.788;7.318;2023-09-19T01:08:56;100263.00;;;14.52;100.00
43125;BME280;49182;50.788;7.318;2023-09-19T01:14:04;100263.69;;;14.46;100.00
43125;BME280;49182;50.788;7.318;2023-09-19T01:19:27;100265.19;;;14.48;100.00
43125;BME280;49182;50.788;7.318;2023-09-19T01:24:57;100277.44;;;14.57;100.00
43125;BME280;49182;50.788;7.318;2023-09-19T01:30:13;100277.13;;;14.69;100.00
43125;BME280;49182;50.788;7.318;2023-09-19T01:35:16;100277.91;;;14.77;100.00
43125;BME280;49182;50.788;7.318;2023-09-19T01:40:19;100124.81;;;13.81;100.00
43125;BME280;49182;50.788;7.318;2023-09-19T01:45:31;100245.72;;;14.64;100.00
43125;BME280;49182;50.788;7.318;2023-09-19T01:50:39;100283.53;;;14.90;100.00
43125;BME280;49182;50.788;7.318;2023-09-19T01:55:48;100273.91;;;14.81;100.00
43125;BME280;49182;50.788;7.318;2023-09-19T02:00:52;100281.72;;;14.83;100.00
43125;BME280;49182;50.788;7.318;2023-09-19T02:05:56;100247.22;;;14.67;100.00
43125;BME280;49182;50.788;7.318;2023-09-19T02:10:58;100306.09;;;15.11;100.00
43125;BME280;49182;50.788;7.318;2023-09-19T02:16:01;100304.75;;;15.07;100.00
43125;BME280;49182;50.788;7.318;2023-09-19T02:21:03;100320.00;;;15.21;96.58
43125;BME280;49182;50.788;7.318;2023-09-19T02:26:05;100277.88;;;14.93;97.02
43125;BME280;49182;50.788;7.318;2023-09-19T02:31:08;100308.53;;;15.12;92.05
43125;BME280;49182;50.788;7.318;2023-09-19T02:36:10;100341.59;;;15.26;94.23
43125;BME280;49182;50.788;7.318;2023-09-19T02:41:12;100356.41;;;15.20;91.21
43125;BME280;49182;50.788;7.318;2023-09-19T02:46:15;100343.28;;;15.19;90.41
43125;BME280;49182;50.788;7.318;2023-09-19T02:51:17;100350.91;;;15.22;89.92
43125;BME280;49182;50.788;7.318;2023-09-19T02:56:19;100354.94;;;15.10;91.43
43125;BME280;49182;50.788;7.318;2023-09-19T03:01:22;100351.47;;;15.01;90.79
43125;BME280;49182;50.788;7.318;2023-09-19T03:06:24;100342.34;;;14.87;88.88
43125;BME280;49182;50.788;7.318;2023-09-19T03:11:26;100361.97;;;14.86;90.12
43125;BME280;49182;50.788;7.318;2023-09-19T03:16:33;100349.34;;;14.72;90.46
43125;BME280;49182;50.788;7.318;2023-09-19T03:21:35;100319.28;;;14.39;93.98
43125;BME280;49182;50.788;7.318;2023-09-19T03:26:36;100374.75;;;14.58;95.50
43125;BME280;49182;50.788;7.318;2023-09-19T03:31:40;100389.53;;;14.53;96.00
43125;BME280;49182;50.788;7.318;2023-09-19T03:36:43;100331.50;;;14.08;96.71
43125;BME280;49182;50.788;7.318;2023-09-19T03:41:44;100349.94;;;14.09;98.01
43125;BME280;49182;50.788;7.318;2023-09-19T03:46:48;100385.13;;;14.19;98.70
43125;BME280;49182;50.788;7.318;2023-09-19T03:51:50;100401.06;;;14.19;100.00
43125;BME280;49182;50.788;7.318;2023-09-19T03:56:52;100367.31;;;13.88;100.00
43125;BME280;49182;50.788;7.318;2023-09-19T04:01:55;100344.16;;;13.56;100.00
43125;BME280;49182;50.788;7.318;2023-09-19T04:06:57;100378.91;;;13.78;100.00
43125;BME280;49182;50.788;7.318;2023-09-19T04:11:59;100390.00;;;13.74;100.00
43125;BME280;49182;50.788;7.318;2023-09-19T04:17:03;100393.59;;;13.65;100.00
43125;BME280;49182;50.788;7.318;2023-09-19T04:22:05;100372.09;;;13.42;100.00
43125;BME280;49182;50.788;7.318;2023-09-19T04:27:07;100409.75;;;13.46;100.00
43125;BME280;49182;50.788;7.318;2023-09-19T04:32:10;100408.88;;;13.37;100.00
43125;BME280;49182;50.788;7.318;2023-09-19T04:37:12;100391.22;;;13.20;100.00
43125;BME280;49182;50.788;7.318;2023-09-19T04:42:14;100400.66;;;13.22;100.00
43125;BME280;49182;50.788;7.318;2023-09-19T04:47:17;100397.81;;;13.16;100.00
43125;BME280;49182;50.788;7.318;2023-09-19T04:52:18;100372.94;;;12.91;100.00
43125;BME280;49182;50.788;7.318;2023-09-19T04:57:20;100402.34;;;13.06;100.00
43125;BME280;49182;50.788;7.318;2023-09-19T05:02:24;100358.66;;;12.66;100.00
43125;BME280;49182;50.788;7.318;2023-09-19T05:07:26;100413.72;;;12.98;100.00
43125;BME280;49182;50.788;7.318;2023-09-19T05:12:27;100394.69;;;12.77;100.00
43125;BME280;49182;50.788;7.318;2023-09-19T05:17:31;100362.03;;;12.50;100.00
43125;BME280;49182;50.788;7.318;2023-09-19T05:22:33;100426.31;;;12.78;100.00
43125;BME280;49182;50.788;7.318;2023-09-19T05:27:34;100441.56;;;12.76;100.00
43125;BME280;49182;50.788;7.318;2023-09-19T05:32:37;100445.31;;;12.74;100.00
43125;BME280;49182;50.788;7.318;2023-09-19T05:37:39;100443.66;;;12.73;100.00
43125;BME280;49182;50.788;7.318;2023-09-19T05:42:41;100300.75;;;11.74;100.00
43125;BME280;49182;50.788;7.318;2023-09-19T05:47:44;100465.47;;;12.67;100.00
43125;BME280;49182;50.788;7.318;2023-09-19T05:52:51;100465.41;;;12.59;100.00
43125;BME280;49182;50.788;7.318;2023-09-19T05:57:53;100470.25;;;12.63;100.00
43125;BME280;49182;50.788;7.318;2023-09-19T06:02:58;100483.16;;;12.66;100.00
43125;BME280;49182;50.788;7.318;2023-09-19T06:08:00;100498.78;;;12.69;100.00
43125;BME280;49182;50.788;7.318;2023-09-19T06:13:03;100400.13;;;12.22;100.00
43125;BME280;49182;50.788;7.318;2023-09-19T06:18:10;100506.22;;;12.83;100.00
43125;BME280;49182;50.788;7.318;2023-09-19T06:23:12;100518.53;;;12.92;100.00
43125;BME280;49182;50.788;7.318;2023-09-19T06:28:14;100482.41;;;12.74;100.00
43125;BME280;49182;50.788;7.318;2023-09-19T06:33:17;100454.34;;;12.63;100.00
43125;BME280;49182;50.788;7.318;2023-09-19T06:38:20;100538.53;;;13.22;100.00
43125;BME280;49182;50.788;7.318;2023-09-19T06:43:22;100508.72;;;13.20;100.00
43125;BME280;49182;50.788;7.318;2023-09-19T06:48:25;100430.03;;;12.85;100.00
43125;BME280;49182;50.788;7.318;2023-09-19T06:53:28;100546.19;;;13.69;99.68
43125;BME280;49182;50.788;7.318;2023-09-19T06:58:30;100543.34;;;13.88;96.60
43125;BME280;49182;50.788;7.318;2023-09-19T07:03:33;100474.19;;;13.64;94.69
43125;BME280;49182;50.788;7.318;2023-09-19T07:08:35;100551.63;;;14.27;92.46
43125;BME280;49182;50.788;7.318;2023-09-19T07:13:37;100551.06;;;14.41;88.91
43125;BME280;49182;50.788;7.318;2023-09-19T07:18:40;100550.66;;;14.62;88.35
43125;BME280;49182;50.788;7.318;2023-09-19T07:23:42;100516.09;;;14.54;87.01
43125;BME280;49182;50.788;7.318;2023-09-19T07:28:44;100549.03;;;14.85;83.87
43125;BME280;49182;50.788;7.318;2023-09-19T07:33:47;100532.75;;;14.88;82.69
43125;BME280;49182;50.788;7.318;2023-09-19T07:38:49;100547.09;;;15.12;80.54
43125;BME280;49182;50.788;7.318;2023-09-19T07:43:51;100519.31;;;15.06;81.77
43125;BME280;49182;50.788;7.318;2023-09-19T07:48:54;100551.25;;;15.47;80.21
43125;BME280;49182;50.788;7.318;2023-09-19T07:53:56;100536.09;;;15.47;79.06
43125;BME280;49182;50.788;7.318;2023-09-19T07:58:58;100566.53;;;15.69;78.19
43125;BME280;49182;50.788;7.318;2023-09-19T08:04:01;100565.72;;;15.76;74.92
43125;BME280;49182;50.788;7.318;2023-09-19T08:09:03;100548.06;;;15.84;75.26
43125;BME280;49182;50.788;7.318;2023-09-19T08:14:05;100566.28;;;16.11;75.21
43125;BME280;49182;50.788;7.318;2023-09-19T08:19:09;100562.28;;;16.15;74.84
43125;BME280;49182;50.788;7.318;2023-09-19T08:24:13;100557.56;;;16.33;73.95
43125;BME280;49182;50.788;7.318;2023-09-19T08:29:14;100561.00;;;16.42;71.94
43125;BME280;49182;50.788;7.318;2023-09-19T08:34:17;100563.19;;;16.38;71.47
43125;BME280;49182;50.788;7.318;2023-09-19T08:39:19;100571.13;;;16.63;71.23
43125;BME280;49182;50.788;7.318;2023-09-19T08:44:21;100566.88;;;16.76;70.17
43125;BME280;49182;50.788;7.318;2023-09-19T08:49:33;100563.63;;;16.89;70.31
43125;BME280;49182;50.788;7.318;2023-09-19T08:54:40;100530.50;;;16.83;68.40
43125;BME280;49182;50.788;7.318;2023-09-19T08:59:44;100568.94;;;17.20;67.07
43125;BME280;49182;50.788;7.318;2023-09-19T09:04:49;100569.81;;;17.35;68.25
43125;BME280;49182;50.788;7.318;2023-09-19T09:09:52;100490.13;;;16.64;65.88
43125;BME280;49182;50.788;7.318;2023-09-19T09:14:53;100545.31;;;17.31;66.99
43125;BME280;49182;50.788;7.318;2023-09-19T09:19:57;100515.91;;;17.39;66.01
43125;BME280;49182;50.788;7.318;2023-09-19T09:24:59;100476.09;;;17.30;65.00
43125;BME280;49182;50.788;7.318;2023-09-19T09:30:01;100570.88;;;17.86;63.83
43125;BME280;49182;50.788;7.318;2023-09-19T09:35:07;100566.56;;;18.00;62.41
43125;BME280;49182;50.788;7.318;2023-09-19T09:40:09;100570.91;;;18.01;62.43
43125;BME280;49182;50.788;7.318;2023-09-19T09:45:15;100569.50;;;18.05;61.31
43125;BME280;49182;50.788;7.318;2023-09-19T09:50:29;100567.00;;;18.03;60.68
43125;BME280;49182;50.788;7.318;2023-09-19T09:56:00;100561.25;;;18.14;59.15
43125;BME280;49182;50.788;7.318;2023-09-19T10:01:05;100428.00;;;17.38;60.48
43125;BME280;49182;50.788;7.318;2023-09-19T10:06:07;100549.22;;;18.40;58.36
43125;BME280;49182;50.788;7.318;2023-09-19T10:11:16;100552.06;;;18.53;57.13
43125;BME280;49182;50.788;7.318;2023-09-19T10:16:18;100542.28;;;18.75;57.65
43125;BME280;49182;50.788;7.318;2023-09-19T10:21:21;100551.72;;;18.92;56.55
43125;BME280;49182;50.788;7.318;2023-09-19T10:26:25;100543.44;;;19.08;55.91
43125;BME280;49182;50.788;7.318;2023-09-19T10:31:28;100556.63;;;19.10;54.96
43125;BME280;49182;50.788;7.318;2023-09-19T10:36:32;100529.09;;;19.37;56.02
43125;BME280;49182;50.788;7.318;2023-09-19T10:41:36;100532.34;;;19.54;55.37
43125;BME280;49182;50.788;7.318;2023-09-19T10:46:37;100534.06;;;19.61;53.29
43125;BME280;49182;50.788;7.318;2023-09-19T10:51:41;100537.97;;;19.65;54.47
43125;BME280;49182;50.788;7.318;2023-09-19T10:56:47;100547.03;;;19.64;53.16
43125;BME280;49182;50.788;7.318;2023-09-19T11:01:51;100519.56;;;19.84;53.07
43125;BME280;49182;50.788;7.318;2023-09-19T11:07:01;100544.41;;;19.99;55.00
43125;BME280;49182;50.788;7.318;2023-09-19T11:12:05;100541.97;;;20.04;52.82
43125;BME280;49182;50.788;7.318;2023-09-19T11:17:40;100527.59;;;20.25;50.94
43125;BME280;49182;50.788;7.318;2023-09-19T11:28:37;100495.78;;;20.08;51.31
43125;BME280;49182;50.788;7.318;2023-09-19T11:33:39;100522.69;;;20.28;50.92
43125;BME280;49182;50.788;7.318;2023-09-19T11:38:59;100532.72;;;20.47;50.13
43125;BME280;49182;50.788;7.318;2023-09-19T11:44:32;100516.63;;;20.47;48.79
43125;BME280;49182;50.788;7.318;2023-09-19T11:49:40;100419.22;;;19.93;49.34
43125;BME280;49182;50.788;7.318;2023-09-19T11:54:42;100551.09;;;20.57;48.86
43125;BME280;49182;50.788;7.318;2023-09-19T11:59:46;100497.88;;;20.54;49.06
43125;BME280;49182;50.788;7.318;2023-09-19T12:04:53;100453.22;;;20.33;47.84
43125;BME280;49182;50.788;7.318;2023-09-19T12:10:03;100539.81;;;20.81;48.48
43125;BME280;49182;50.788;7.318;2023-09-19T12:15:09;100522.19;;;21.39;48.27
43125;BME280;49182;50.788;7.318;2023-09-19T12:20:10;100527.69;;;21.05;47.12
43125;BME280;49182;50.788;7.318;2023-09-19T12:25:13;100526.50;;;21.21;46.69
43125;BME280;49182;50.788;7.318;2023-09-19T12:30:16;100504.41;;;21.32;46.10
43125;BME280;49182;50.788;7.318;2023-09-19T12:35:28;100517.59;;;21.73;45.72
43125;BME280;49182;50.788;7.318;2023-09-19T12:40:30;100509.66;;;22.11;44.85
43125;BME280;49182;50.788;7.318;2023-09-19T12:45:34;100446.53;;;21.43;46.44
43125;BME280;49182;50.788;7.318;2023-09-19T12:51:03;100500.00;;;21.97;45.71
43125;BME280;49182;50.788;7.318;2023-09-19T12:56:06;100507.44;;;21.95;44.96
43125;BME280;49182;50.788;7.318;2023-09-19T13:01:15;100495.00;;;22.07;44.23
43125;BME280;49182;50.788;7.318;2023-09-19T13:06:35;100476.19;;;22.07;45.62
43125;BME280;49182;50.788;7.318;2023-09-19T13:11:37;100480.84;;;22.31;44.88
43125;BME280;49182;50.788;7.318;2023-09-19T13:16:57;100487.00;;;22.45;45.14
43125;BME280;49182;50.788;7.318;2023-09-19T13:21:59;100426.31;;;22.04;42.76
43125;BME280;49182;50.788;7.318;2023-09-19T13:27:00;100452.53;;;22.22;43.13
43125;BME280;49182;50.788;7.318;2023-09-19T13:32:04;100451.75;;;22.15;43.18
43125;BME280;49182;50.788;7.318;2023-09-19T13:37:06;100470.44;;;21.97;45.54
43125;BME280;49182;50.788;7.318;2023-09-19T13:42:08;100465.94;;;21.64;45.22
43125;BME280;49182;50.788;7.318;2023-09-19T13:47:11;100471.91;;;21.73;46.51
43125;BME280;49182;50.788;7.318;2023-09-19T13:52:13;100467.75;;;21.90;44.73
43125;BME280;49182;50.788;7.318;2023-09-19T13:57:15;100412.22;;;21.51;45.95
43125;BME280;49182;50.788;7.318;2023-09-19T14:02:18;100418.75;;;21.82;44.86
43125;BME280;49182;50.788;7.318;2023-09-19T14:07:20;100465.59;;;22.18;45.12
43125;BME280;49182;50.788;7.318;2023-09-19T14:12:23;100418.03;;;22.12;43.56
43125;BME280;49182;50.788;7.318;2023-09-19T14:17:26;100463.88;;;22.31;43.33
43125;BME280;49182;50.788;7.318;2023-09-19T14:22:28;100458.34;;;22.57;43.06
43125;BME280;49182;50.788;7.318;2023-09-19T14:27:30;100462.56;;;22.46;43.40
43125;BME280;49182;50.788;7.318;2023-09-19T14:32:33;100463.25;;;22.67;42.89
43125;BME280;49182;50.788;7.318;2023-09-19T14:37:35;100463.88;;;22.69;44.27
43125;BME280;49182;50.788;7.318;2023-09-19T14:42:39;100448.75;;;22.68;44.01
43125;BME280;49182;50.788;7.318;2023-09-19T14:47:42;100457.50;;;22.94;42.76
43125;BME280;49182;50.788;7.318;2023-09-19T14:52:44;100455.72;;;23.13;42.26
43125;BME280;49182;50.788;7.318;2023-09-19T14:57:49;100402.31;;;22.47;42.03
43125;BME280;49182;50.788;7.318;2023-09-19T15:02:52;100461.09;;;22.50;42.18
43125;BME280;49182;50.788;7.318;2023-09-19T15:07:54;100450.06;;;22.21;43.32
43125;BME280;49182;50.788;7.318;2023-09-19T15:12:58;100456.34;;;22.01;43.48
43125;BME280;49182;50.788;7.318;2023-09-19T15:18:01;100464.41;;;22.08;43.76
43125;BME280;49182;50.788;7.318;2023-09-19T15:23:03;100463.56;;;21.94;43.59
43125;BME280;49182;50.788;7.318;2023-09-19T15:28:05;100456.22;;;21.70;43.34
43125;BME280;49182;50.788;7.318;2023-09-19T15:33:08;100443.09;;;21.93;45.07
43125;BME280;49182;50.788;7.318;2023-09-19T15:38:10;100441.06;;;21.82;44.56
43125;BME280;49182;50.788;7.318;2023-09-19T15:43:12;100447.72;;;21.66;44.33
43125;BME280;49182;50.788;7.318;2023-09-19T15:48:16;100450.88;;;21.30;44.77
43125;BME280;49182;50.788;7.318;2023-09-19T15:53:17;100433.13;;;20.96;46.16
43125;BME280;49182;50.788;7.318;2023-09-19T15:58:19;100430.59;;;20.69;46.84
43125;BME280;49182;50.788;7.318;2023-09-19T16:03:22;100449.16;;;20.64;46.38
43125;BME280;49182;50.788;7.318;2023-09-19T16:08:24;100385.09;;;20.21;47.60
43125;BME280;49182;50.788;7.318;2023-09-19T16:13:26;100429.97;;;20.53;47.81
43125;BME280;49182;50.788;7.318;2023-09-19T16:18:29;100439.03;;;20.46;48.08
43125;BME280;49182;50.788;7.318;2023-09-19T16:23:31;100437.72;;;20.29;49.36
43125;BME280;49182;50.788;7.318;2023-09-19T16:28:33;100440.72;;;20.12;49.76
43125;BME280;49182;50.788;7.318;2023-09-19T16:33:38;100373.94;;;19.63;50.04
43125;BME280;49182;50.788;7.318;2023-09-19T16:38:41;100445.25;;;20.05;50.55
43125;BME280;49182;50.788;7.318;2023-09-19T16:43:43;100419.41;;;19.85;50.73
43125;BME280;49182;50.788;7.318;2023-09-19T16:48:47;100441.75;;;20.05;51.02
43125;BME280;49182;50.788;7.318;2023-09-19T16:54:04;100446.69;;;20.08;49.98
43125;BME280;49182;50.788;7.318;2023-09-19T16:59:06;100438.22;;;19.98;51.12
43125;BME280;49182;50.788;7.318;2023-09-19T17:04:09;100448.41;;;19.74;52.54
43125;BME280;49182;50.788;7.318;2023-09-19T17:09:11;100434.78;;;19.42;52.50
43125;BME280;49182;50.788;7.318;2023-09-19T17:14:12;100451.25;;;19.45;53.18
43125;BME280;49182;50.788;7.318;2023-09-19T17:19:15;100443.13;;;19.32;54.12
43125;BME280;49182;50.788;7.318;2023-09-19T17:24:17;100452.34;;;19.23;54.30
43125;BME280;49182;50.788;7.318;2023-09-19T17:29:19;100411.50;;;18.86;54.69
43125;BME280;49182;50.788;7.318;2023-09-19T17:34:22;100441.44;;;18.96;55.40
43125;BME280;49182;50.788;7.318;2023-09-19T17:39:24;100439.97;;;18.94;55.31
43125;BME280;49182;50.788;7.318;2023-09-19T17:44:26;100360.31;;;18.26;56.02
43125;BME280;49182;50.788;7.318;2023-09-19T17:49:29;100451.06;;;18.70;56.94
43125;BME280;49182;50.788;7.318;2023-09-19T17:54:31;100349.16;;;18.01;56.51
43125;BME280;49182;50.788;7.318;2023-09-19T17:59:33;100412.34;;;18.30;57.21
43125;BME280;49182;50.788;7.318;2023-09-19T18:04:36;100468.16;;;18.54;57.47
43125;BME280;49182;50.788;7.318;2023-09-19T18:09:38;100467.81;;;18.57;57.15
43125;BME280;49182;50.788;7.318;2023-09-19T18:14:39;100470.31;;;18.44;58.39
43125;BME280;49182;50.788;7.318;2023-09-19T18:19:42;100455.88;;;18.24;58.06
43125;BME280;49182;50.788;7.318;2023-09-19T18:24:44;100460.28;;;18.31;57.95
43125;BME280;49182;50.788;7.318;2023-09-19T18:29:46;100479.56;;;18.27;58.89
43125;BME280;49182;50.788;7.318;2023-09-19T18:34:49;100479.00;;;18.16;59.26
43125;BME280;49182;50.788;7.318;2023-09-19T18:39:51;100469.28;;;17.94;58.82
43125;BME280;49182;50.788;7.318;2023-09-19T18:44:53;100491.28;;;17.96;59.38
43125;BME280;49182;50.788;7.318;2023-09-19T18:49:56;100401.13;;;17.39;59.38
43125;BME280;49182;50.788;7.318;2023-09-19T18:54:57;100356.75;;;17.09;59.52
43125;BME280;49182;50.788;7.318;2023-09-19T18:59:59;100496.84;;;17.95;61.28
43125;BME280;49182;50.788;7.318;2023-09-19T19:05:03;100482.25;;;17.68;61.84
43125;BME280;49182;50.788;7.318;2023-09-19T19:10:06;100491.75;;;17.70;62.90
43125;BME280;49182;50.788;7.318;2023-09-19T19:15:09;100478.81;;;17.59;64.53
43125;BME280;49182;50.788;7.318;2023-09-19T19:20:12;100417.38;;;17.15;66.04
43125;BME280;49182;50.788;7.318;2023-09-19T19:25:14;100498.78;;;17.49;67.11
43125;BME280;49182;50.788;7.318;2023-09-19T19:30:16;100371.75;;;16.73;64.08
43125;BME280;49182;50.788;7.318;2023-09-19T19:35:19;100483.34;;;17.59;64.18
43125;BME280;49182;50.788;7.318;2023-09-19T19:40:21;100410.75;;;17.11;66.23
43125;BME280;49182;50.788;7.318;2023-09-19T19:45:22;100481.47;;;17.59;64.28
43125;BME280;49182;50.788;7.318;2023-09-19T19:50:26;100486.78;;;17.67;64.81
43125;BME280;49182;50.788;7.318;2023-09-19T19:55:27;100483.53;;;17.72;64.48
43125;BME280;49182;50.788;7.318;2023-09-19T20:00:29;100439.31;;;17.55;64.03
43125;BME280;49182;50.788;7.318;2023-09-19T20:05:36;100454.00;;;17.73;64.23
43125;BME280;49182;50.788;7.318;2023-09-19T20:10:38;100465.03;;;17.85;63.90
43125;BME280;49182;50.788;7.318;2023-09-19T20:15:40;100414.41;;;17.77;63.11
43125;BME280;49182;50.788;7.318;2023-09-19T20:20:43;100471.75;;;18.10;63.18
43125;BME280;49182;50.788;7.318;2023-09-19T20:25:46;100444.69;;;17.84;62.57
43125;BME280;49182;50.788;7.318;2023-09-19T20:30:49;100476.72;;;18.13;63.39
43125;BME280;49182;50.788;7.318;2023-09-19T20:35:56;100459.22;;;18.11;62.75
43125;BME280;49182;50.788;7.318;2023-09-19T20:40:58;100472.31;;;18.21;62.91
43125;BME280;49182;50.788;7.318;2023-09-19T20:46:01;100463.25;;;18.22;63.24
43125;BME280;49182;50.788;7.318;2023-09-19T20:51:08;100449.94;;;18.07;63.26
43125;BME280;49182;50.788;7.318;2023-09-19T20:56:10;100411.53;;;17.78;64.07
43125;BME280;49182;50.788;7.318;2023-09-19T21:01:12;100487.22;;;18.15;63.84
43125;BME280;49182;50.788;7.318;2023-09-19T21:06:16;100457.69;;;18.02;64.09
43125;BME280;49182;50.788;7.318;2023-09-19T21:11:19;100482.69;;;18.15;64.04
43125;BME280;49182;50.788;7.318;2023-09-19T21:16:21;100487.03;;;18.16;63.78
43125;BME280;49182;50.788;7.318;2023-09-19T21:21:24;100452.69;;;17.99;63.88
43125;BME280;49182;50.788;7.318;2023-09-19T21:26:26;100482.34;;;18.18;64.45
43125;BME280;49182;50.788;7.318;2023-09-19T21:31:27;100478.84;;;18.18;64.66
43125;BME280;49182;50.788;7.318;2023-09-19T21:36:31;100484.63;;;18.22;64.58
43125;BME280;49182;50.788;7.318;2023-09-19T21:41:33;100472.91;;;18.23;65.06
43125;BME280;49182;50.788;7.318;2023-09-19T21:46:35;100474.75;;;18.22;66.60
43125;BME280;49182;50.788;7.318;2023-09-19T21:51:38;100460.78;;;18.05;66.54
43125;BME280;49182;50.788;7.318;2023-09-19T21:56:40;100404.88;;;17.60;66.31
43125;BME280;49182;50.788;7.318;2023-09-19T22:01:42;100462.19;;;18.01;66.30
43125;BME280;49182;50.788;7.318;2023-09-19T22:06:45;100463.09;;;17.94;66.40
43125;BME280;49182;50.788;7.318;2023-09-19T22:11:47;100464.78;;;17.95;66.49
43125;BME280;49182;50.788;7.318;2023-09-19T22:16:48;100458.78;;;17.93;68.63
43125;BME280;49182;50.788;7.318;2023-09-19T22:21:51;100452.34;;;17.72;69.76
43125;BME280;49182;50.788;7.318;2023-09-19T22:26:53;100446.31;;;17.56;70.22
43125;BME280;49182;50.788;7.318;2023-09-19T22:31:55;100451.00;;;17.39;71.94
43125;BME280;49182;50.788;7.318;2023-09-19T22:36:58;100447.38;;;17.17;73.16
43125;BME280;49182;50.788;7.318;2023-09-19T22:42:00;100458.13;;;17.09;73.87
43125;BME280;49182;50.788;7.318;2023-09-19T22:47:01;100458.75;;;16.96;74.65
43125;BME280;49182;50.788;7.318;2023-09-19T22:52:05;100455.13;;;16.89;75.97
43125;BME280;49182;50.788;7.318;2023-09-19T22:57:07;100453.34;;;16.82;77.24
43125;BME280;49182;50.788;7.318;2023-09-19T23:02:09;100436.09;;;16.70;78.92
43125;BME280;49182;50.788;7.318;2023-09-19T23:07:12;100415.09;;;16.44;79.03
43125;BME280;49182;50.788;7.318;2023-09-19T23:12:14;100415.03;;;16.29;79.57
43125;BME280;49182;50.788;7.318;2023-09-19T23:17:16;100455.88;;;16.52;80.85
43125;BME280;49182;50.788;7.318;2023-09-19T23:22:19;100453.09;;;16.38;82.12
43125;BME280;49182;50.788;7.318;2023-09-19T23:27:20;100465.16;;;16.26;82.39
43125;BME280;49182;50.788;7.318;2023-09-19T23:32:22;100443.75;;;16.11;83.24
43125;BME280;49182;50.788;7.318;2023-09-19T23:37:25;100454.47;;;16.03;84.24
43125;BME280;49182;50.788;7.318;2023-09-19T23:42:28;100454.03;;;15.91;85.66
43125;BME280;49182;50.788;7.318;2023-09-19T23:47:30;100297.03;;;14.81;86.01
43125;BME280;49182;50.788;7.318;2023-09-19T23:52:33;100450.09;;;15.63;86.38
43125;BME280;49182;50.788;7.318;2023-09-19T23:57:34;100457.59;;;15.51;87.20
